ADDS TAF Data INFO
IDs: Format: Raw Decoded Include METARs

Data at: 2046 UTC 25 Feb 2017

Region: TOP
KATL 251930Z 2520/2624 30017G27KT P6SM SKC
  FM260100 31012KT P6SM SKC
  FM261000 34006KT P6SM SKC
  FM262200 16005KT P6SM SCT250


KBOS 251736Z 2518/2624 16010G18KT P6SM BKN030
  FM252300 15010G17KT 4SM BR BKN015
  FM260300 22012G25KT 3SM -SHRA BR OVC015
  FM260500 27013G26KT P6SM BKN045
  FM260700 29014G28KT P6SM SCT060


KBWI 251936Z 2520/2624 14010KT P6SM -TSRA VCTS BKN045CB BKN150
  TEMPO 2521/2522 20020G35KT 2SM TSRA BKN030CB
  FM252200 30013G20KT 5SM -SHRA VCTS OVC050CB
  FM252300 30013KT P6SM BKN080
  FM260100 30018G32KT P6SM SCT100
  FM260600 29014G21KT P6SM FEW040
  FM262200 27010KT P6SM FEW250


KCLE 252010Z 2520/2624 27020G32KT P6SM BKN035 OVC045
  TEMPO 2520/2524 -SN BKN025
  FM260000 27015G25KT P6SM OVC025
  FM260500 26014KT P6SM OVC025
  FM261600 24008KT P6SM BKN035 OVC100


KCLT 251941Z 2520/2618 23015G31KT P6SM SKC
  FM252200 29009G21KT P6SM SKC
  FM260100 31005KT P6SM SKC


KCVG 251959Z 2520/2624 27014G25KT P6SM OVC035
  FM252300 27012KT P6SM BKN050
  FM260300 28010KT P6SM SCT050
  FM260600 27006KT P6SM SCT250
  FM262000 21008KT P6SM BKN150


KDCA 251934Z 2520/2618 19014G21KT P6SM BKN040
  TEMPO 2520/2521 22020G35KT 2SM TSRA BKN030CB
  FM252100 27012G19KT 4SM -SHRA VCTS OVC030CB
  FM252300 31012KT P6SM BKN060
  FM260100 30017G34KT P6SM SCT100
  FM260600 30014G24KT P6SM FEW040
  FM261700 29012G22KT P6SM FEW050


KDEN 251950Z 2520/2624 20008KT P6SM FEW150 BKN220
  FM252200 26009KT P6SM FEW080 SCT150 BKN220
  FM260000 28010G15KT P6SM SCT140 BKN220
  FM260300 34008KT P6SM FEW120 SCT220
  FM260600 20009KT P6SM FEW150 SCT220


KDFW 251723Z 2518/2624 02006KT P6SM SKC
  FM260100 11005KT P6SM FEW250
  FM261700 16013KT P6SM BKN018
  FM262100 16012KT P6SM VCSH OVC015


KDTW 252007Z 2520/2624 27018G30KT P6SM -SHSN SCT028 BKN045 OVC060
  TEMPO 2520/2523 3SM -SHSN BKN028 OVC035
  FM260100 27013G20KT P6SM SCT025 BKN040
  FM261000 23011KT P6SM SCT150 BKN250
  FM261700 22018G30KT P6SM SCT050 BKN070


KEWR 252042Z 2521/2624 16014G21KT 6SM BR SCT008 SCT025 BKN050
  TEMPO 2522/2523 BKN025
  FM252300 18015G21KT 3SM -TSRA BR SCT008 BKN025CB
  TEMPO 2523/2524 22025G44KT 1SM +TSRA BKN008CB
  FM260100 27016G27KT 4SM -SHRA BKN015
  FM260200 28015G23KT P6SM BKN060
  FM260500 30018G26KT P6SM SCT100
  FM261200 28015G23KT P6SM BKN050 BKN250


KFLL 251741Z 2518/2618 23010KT P6SM SCT030
  FM260100 27008KT P6SM SCT100
  FM260500 31006KT P6SM BKN100
  FM261400 04010KT P6SM SCT045


KIAD 251930Z 2520/2624 18018G31KT P6SM VCTS BKN035CB BKN060 OVC100
  FM252030 31013KT P6SM OVC045
  FM260000 30016G26KT P6SM SCT250
  FM260500 30015G26KT P6SM SCT040
  FM260900 28011G18KT P6SM SCT040
  FM262300 28006KT P6SM FEW250


KIAH 252014Z 2520/2624 36008KT P6SM SKC
  FM260100 VRB04KT P6SM SKC
  FM261200 10007KT P6SM SCT015
  FM261500 11009KT P6SM SCT015 BKN035
  FM261900 13015KT P6SM BKN040


KJFK 252042Z 2521/2624 16018G25KT P6SM SCT006 SCT020 BKN050
  TEMPO 2521/2523 BKN020
  FM252300 17017G27KT 5SM -SHRA BR SCT008 BKN015
  TEMPO 2523/2601 2SM -TSRA BKN008CB
  FM260100 25016G29KT 5SM -SHRA BKN015
  FM260200 29017G26KT P6SM BKN060
  FM260500 30020G30KT P6SM SCT100
  FM261200 28018G27KT P6SM BKN050 BKN250


KLAS 252045Z 2521/2618 VRB05KT P6SM SCT180 BKN250
  FM260500 21005KT P6SM BKN180
  FM261500 VRB05KT P6SM BKN110


KLAX 252037Z 2521/2624 29012KT P6SM SCT150 BKN200
  FM260400 29006KT P6SM BKN150
  FM260900 06005KT P6SM VCSH BKN030 OVC050
  FM261300 09008KT P6SM -SHRA SCT010 OVC021
  TEMPO 2613/2615 10011KT 5SM -RA BR BKN010
  FM261700 14005KT P6SM -SHRA SCT015 BKN025
  FM262000 23010KT P6SM VCSH SCT015 BKN025


KLGA 252042Z 2521/2618 17015G22KT P6SM SCT008 BKN020
  FM252300 18014G21KT 4SM -SHRA BR SCT008 BKN015
  TEMPO 2523/2601 2SM -TSRA BKN008CB
  FM260100 27015G28KT 5SM -SHRA BKN015
  FM260300 29017G25KT P6SM BKN060
  FM260500 30019G30KT P6SM SCT100
  FM261200 28018G29KT P6SM BKN050 BKN250


KMCO 252018Z 2520/2618 27009KT P6SM SCT045
  FM260000 29008KT P6SM SKC
  FM260600 34009KT P6SM SKC
  FM261500 02011KT P6SM SKC


KMDW 251859Z 2519/2618 29013G23KT P6SM -SN SCT025 OVC035
  FM252300 29013G19KT P6SM BKN035
  FM260300 28008KT P6SM SCT150
  FM261000 21007KT P6SM BKN090
  FM261400 20016G24KT P6SM BKN060
  FM261700 21018G28KT P6SM SCT060


KMEM 251732Z 2518/2618 33009G16KT P6SM SKC
  FM252100 32008KT P6SM SKC
  FM260000 VRB02KT P6SM SKC
  FM261400 15009KT P6SM SCT250


KMIA 251741Z 2518/2618 VRB03KT P6SM SCT030
  FM252000 20008KT P6SM SCT035
  FM260200 30005KT P6SM SCT050
  FM261400 03008KT P6SM SCT045


KMSP 251945Z 2520/2624 32012KT P6SM SCT045
  FM252100 28011KT P6SM BKN045
  FM260000 25008KT P6SM BKN060
  FM262000 26008KT P6SM SCT050


KORD 251859Z 2519/2624 29013G23KT P6SM -SN SCT025 OVC035
  FM252300 29013G19KT P6SM BKN035
  FM260300 28008KT P6SM SCT150
  FM261000 21007KT P6SM BKN090
  FM261400 20016G24KT P6SM BKN060
  FM261700 21018G28KT P6SM SCT060
  FM262000 23022G36KT P6SM FEW060


KPDX 251741Z 2518/2618 00000KT P6SM BKN005 BKN060
  FM251830 27002KT P6SM SCT060
  FM260200 22004KT P6SM OVC050
  FM260900 17010KT P6SM -RA OVC025


KPHL 252039Z 2521/2624 17015G22KT P6SM SCT035 SCT070
  FM252130 19015G25KT 6SM -TSRA BR BKN030CB
  TEMPO 2522/2523 VRB20G40KT 2SM +TSRA OVC020CB
  FM260000 29014G24KT P6SM VCSH OVC045
  FM260200 29018G26KT P6SM SCT045


KPHX 251725Z 2518/2618 10005KT P6SM SCT250
  FM252100 26005KT P6SM OVC250
  FM260600 10007KT P6SM BKN120 OVC200


KPIT 251725Z 2518/2624 26016G25KT P6SM BKN050
  FM260800 28011KT P6SM BKN030
  FM261500 26009KT P6SM SCT050


KSAN 251729Z 2518/2624 VRB06KT P6SM FEW200
  FM252000 28010KT P6SM FEW035 BKN200
  FM260200 27005KT P6SM SCT025 BKN035 BKN100
  FM261000 29005KT P6SM VCSH SCT025 BKN035
  FM261200 VRB05KT P6SM -SHRA BKN025 OVC035
  FM261800 18007KT P6SM VCSH BKN020 BKN035
  FM262200 18009KT P6SM VCSH SCT020 BKN035


KSEA 251722Z 2518/2624 VRB04KT P6SM BKN060
  FM252200 18006KT P6SM BKN040
  FM260500 18010KT P6SM -RASN OVC030
  FM261200 16008KT 5SM -RASN BR BKN015 OVC030
  TEMPO 2614/2618 3SM -SN BR OVC012
  FM262100 VRB04KT P6SM VCSH BKN030


KSFO 251746Z 2518/2624 11004KT P6SM FEW015 SCT150 BKN200
  FM252300 35005KT P6SM VCSH FEW030 BKN050 OVC100
  FM260200 02005KT P6SM BKN050 BKN150
  FM261200 VRB03KT P6SM FEW020 BKN150
  FM261500 30005KT P6SM SCT050 BKN200
  FM262000 30011KT P6SM BKN050 OVC200


KSLC 251916Z 2519/2624 14008KT P6SM VCSH SCT020 BKN030
  FM252030 30006KT P6SM SCT070 BKN090
  FM260300 15006KT P6SM FEW070 SCT090


KSTL 251731Z 2518/2624 30012G22KT P6SM SCT040
  FM260000 31007KT P6SM SCT250
  FM260300 VRB03KT P6SM FEW250
  FM261400 18007KT P6SM BKN120


KTPA 251731Z 2518/2618 27011G16KT P6SM SCT030
  FM260300 32006KT P6SM SCT150
  FM260800 35009KT P6SM SKC
  FM261300 03009KT P6SM SKC



Page loaded:  20:46 UTC  |   12:46 PM Pacific  |   01:46 PM Mountain  |   02:46 PM Central  |   03:46 PM Eastern

 

ADVISORIES

FORECASTS

FORECASTS

OBSERVATIONS

USER TOOLS

ABOUT US